createdAt,value
2022-11-19T00:00:05.211Z,11.97
2022-11-19T00:02:33.827Z,11.96
2022-11-19T00:05:00.709Z,11.94
2022-11-19T00:07:27.646Z,11.94
2022-11-19T00:09:54.640Z,11.93
2022-11-19T00:12:39.888Z,11.93
2022-11-19T00:15:06.955Z,11.95
2022-11-19T00:17:33.703Z,11.96
2022-11-19T00:20:01.899Z,11.97
2022-11-19T00:22:30.071Z,11.98
2022-11-19T00:24:57.138Z,11.95
2022-11-19T00:27:23.924Z,11.95
2022-11-19T00:29:50.880Z,11.95
2022-11-19T00:32:17.746Z,11.94
2022-11-19T00:34:44.854Z,11.95
2022-11-19T00:37:11.857Z,11.94
2022-11-19T00:39:38.764Z,11.94
2022-11-19T00:42:08.136Z,11.92
2022-11-19T00:44:37.420Z,11.91
2022-11-19T00:47:04.530Z,11.87
2022-11-19T00:49:39.014Z,11.85
2022-11-19T00:58:54.649Z,11.82
2022-11-19T01:03:28.966Z,11.81
2022-11-19T01:08:19.543Z,11.80
2022-11-19T01:10:47.849Z,11.80
2022-11-19T01:13:34.653Z,11.80
2022-11-19T01:16:09.661Z,11.82
2022-11-19T01:19:23.178Z,11.82
2022-11-19T01:21:52.192Z,11.81
2022-11-19T01:24:19.142Z,11.80
2022-11-19T01:26:46.327Z,11.80
2022-11-19T01:29:22.375Z,11.81
2022-11-19T01:31:49.313Z,11.81
2022-11-19T01:34:16.329Z,11.82
2022-11-19T01:36:51.256Z,11.82
2022-11-19T01:39:50.694Z,11.84
2022-11-19T01:42:59.638Z,11.84
2022-11-19T01:48:57.621Z,11.87
2022-11-19T01:51:26.502Z,11.88
2022-11-19T01:53:55.677Z,11.88
2022-11-19T01:56:23.007Z,11.87
2022-11-19T01:58:53.102Z,11.86
2022-11-19T02:01:28.105Z,11.82
2022-11-19T02:04:04.874Z,11.78
2022-11-19T02:06:39.479Z,11.75
2022-11-19T02:09:16.367Z,11.72
2022-11-19T02:12:07.525Z,11.72
2022-11-19T02:14:58.153Z,11.70
2022-11-19T02:17:46.886Z,11.68
2022-11-19T02:21:05.906Z,11.67
2022-11-19T02:24:06.283Z,11.65
2022-11-19T02:26:58.061Z,11.63
2022-11-19T02:29:41.904Z,11.61
2022-11-19T02:32:31.314Z,11.58
2022-11-19T02:38:06.969Z,11.51
2022-11-19T02:41:00.231Z,11.49
2022-11-19T02:44:07.080Z,11.46
2022-11-19T02:46:34.271Z,11.46
2022-11-19T02:49:03.594Z,11.45
2022-11-19T02:51:33.852Z,11.42
2022-11-19T02:54:00.599Z,11.42
2022-11-19T02:57:06.521Z,11.39
2022-11-19T03:00:01.313Z,11.39
2022-11-19T03:06:35.880Z,11.37
2022-11-19T03:09:02.861Z,11.37
2022-11-19T03:15:13.541Z,11.37
2022-11-19T03:17:58.805Z,11.38
2022-11-19T03:20:30.515Z,11.40
2022-11-19T03:23:04.151Z,11.44
2022-11-19T03:25:35.423Z,11.44
2022-11-19T03:28:07.114Z,11.45
2022-11-19T03:30:36.455Z,11.45
2022-11-19T03:36:30.761Z,11.44
2022-11-19T03:39:00.811Z,11.45
2022-11-19T03:41:29.094Z,11.44
2022-11-19T03:44:02.612Z,11.45
2022-11-19T03:46:31.390Z,11.42
2022-11-19T03:48:59.518Z,11.41
2022-11-19T03:51:46.638Z,11.41
2022-11-19T03:54:13.726Z,11.44
2022-11-19T03:56:41.615Z,11.45
2022-11-19T03:59:12.426Z,11.45
2022-11-19T04:01:40.445Z,11.45
2022-11-19T04:04:26.139Z,11.45
2022-11-19T04:06:52.840Z,11.44
2022-11-19T04:09:25.109Z,11.46
2022-11-19T04:14:17.416Z,11.47
2022-11-19T04:16:44.473Z,11.48
2022-11-19T04:19:12.700Z,11.49
2022-11-19T04:21:39.412Z,11.50
2022-11-19T04:24:09.173Z,11.52
2022-11-19T04:26:39.017Z,11.52
2022-11-19T04:29:06.526Z,11.50
2022-11-19T04:31:33.658Z,11.51
2022-11-19T04:34:00.548Z,11.53
2022-11-19T04:36:32.527Z,11.54
2022-11-19T04:38:59.353Z,11.55
2022-11-19T04:41:26.287Z,11.55
2022-11-19T04:44:00.714Z,11.54
2022-11-19T04:46:27.679Z,11.53
2022-11-19T04:48:56.387Z,11.51
2022-11-19T04:51:23.558Z,11.47
2022-11-19T04:53:50.543Z,11.46
2022-11-19T04:56:17.288Z,11.45
2022-11-19T04:58:44.030Z,11.46
2022-11-19T05:01:11.189Z,11.45
2022-11-19T05:03:38.319Z,11.46
2022-11-19T05:06:05.359Z,11.48
2022-11-19T05:08:32.269Z,11.48
2022-11-19T05:11:01.695Z,11.47
2022-11-19T05:13:28.451Z,11.47
2022-11-19T05:15:55.352Z,11.46
2022-11-19T05:18:25.294Z,11.45
2022-11-19T05:20:52.483Z,11.45
2022-11-19T05:23:21.919Z,11.46
2022-11-19T05:25:48.658Z,11.46
2022-11-19T05:28:15.562Z,11.47
2022-11-19T05:30:42.271Z,11.50
2022-11-19T05:33:09.105Z,11.49
2022-11-19T05:35:35.984Z,11.50
2022-11-19T05:38:02.982Z,11.49
2022-11-19T05:40:30.189Z,11.47
2022-11-19T05:42:57.130Z,11.46
2022-11-19T05:45:25.343Z,11.47
2022-11-19T05:47:56.049Z,11.48
2022-11-19T05:50:22.937Z,11.48
2022-11-19T05:52:49.768Z,11.50
2022-11-19T05:55:17.147Z,11.50
2022-11-19T05:57:44.106Z,11.48
2022-11-19T06:00:11.432Z,11.50
2022-11-19T06:02:38.285Z,11.48
2022-11-19T06:05:05.507Z,11.48
2022-11-19T06:07:32.608Z,11.51
2022-11-19T06:09:59.536Z,11.50
2022-11-19T06:12:35.120Z,11.50
2022-11-19T06:15:05.800Z,11.49
2022-11-19T06:17:32.992Z,11.49
2022-11-19T06:20:00.623Z,11.49
2022-11-19T06:22:34.485Z,11.51
2022-11-19T06:25:01.391Z,11.49
2022-11-19T06:27:28.457Z,11.49
2022-11-19T06:29:57.758Z,11.50
2022-11-19T06:32:32.136Z,11.51
2022-11-19T06:34:59.158Z,11.50
2022-11-19T06:37:26.180Z,11.51
2022-11-19T06:39:52.959Z,11.51
2022-11-19T06:42:38.394Z,11.50
2022-11-19T06:45:08.611Z,11.50
2022-11-19T06:47:35.792Z,11.50
2022-11-19T06:53:21.137Z,11.45
2022-11-19T06:55:48.105Z,11.42
2022-11-19T06:58:17.157Z,11.40
2022-11-19T07:00:44.325Z,11.39
2022-11-19T07:03:11.341Z,11.41
2022-11-19T07:05:41.315Z,11.43
2022-11-19T07:08:08.470Z,11.42
2022-11-19T07:10:38.584Z,11.45
2022-11-19T07:13:08.492Z,11.46
2022-11-19T07:15:35.517Z,11.46
2022-11-19T07:18:02.322Z,11.46
2022-11-19T07:20:29.195Z,11.48
2022-11-19T07:22:59.462Z,11.48
2022-11-19T07:25:26.699Z,11.51
2022-11-19T07:27:56.260Z,11.51
2022-11-19T07:30:26.180Z,11.49
2022-11-19T07:32:54.056Z,11.51
2022-11-19T07:35:21.040Z,11.53
2022-11-19T07:37:50.398Z,11.56
2022-11-19T07:40:17.257Z,11.57
2022-11-19T07:42:50.039Z,11.59
2022-11-19T07:45:20.052Z,11.63
2022-11-19T07:47:47.204Z,11.64
2022-11-19T07:50:14.811Z,11.67
2022-11-19T07:52:41.586Z,11.66
2022-11-19T07:55:08.645Z,11.67
2022-11-19T07:57:35.604Z,11.68
2022-11-19T08:00:03.318Z,11.69
2022-11-19T08:02:32.492Z,11.70
2022-11-19T08:04:59.486Z,11.69
2022-11-19T08:07:26.394Z,11.71
2022-11-19T08:09:53.195Z,11.73
2022-11-19T08:12:25.354Z,11.73
2022-11-19T08:14:52.069Z,11.70
2022-11-19T08:17:41.788Z,11.69
2022-11-19T08:20:09.170Z,11.66
2022-11-19T08:22:37.442Z,11.63
2022-11-19T08:25:04.532Z,11.61
2022-11-19T08:27:31.477Z,11.60
2022-11-19T08:29:58.420Z,11.61
2022-11-19T08:32:32.057Z,11.61
2022-11-19T08:34:58.966Z,11.61
2022-11-19T08:37:25.742Z,11.58
2022-11-19T08:39:52.529Z,11.59
2022-11-19T08:42:38.137Z,11.59
2022-11-19T08:45:08.101Z,11.59
2022-11-19T08:47:35.072Z,11.59
2022-11-19T08:50:01.817Z,11.60
2022-11-19T08:52:35.461Z,11.62
2022-11-19T08:55:02.375Z,11.63
2022-11-19T08:57:29.420Z,11.65
2022-11-19T08:59:58.235Z,11.65
2022-11-19T09:02:38.715Z,11.68
2022-11-19T09:05:08.681Z,11.72
2022-11-19T09:07:49.419Z,11.75
2022-11-19T09:21:00.610Z,11.76
2022-11-19T09:26:18.372Z,11.78
2022-11-19T09:28:48.533Z,11.78
2022-11-19T09:34:10.801Z,11.79
2022-11-19T09:48:21.478Z,11.90
2022-11-19T09:53:55.780Z,11.89
2022-11-19T09:56:26.310Z,11.90
2022-11-19T09:58:56.896Z,11.91
2022-11-19T10:01:24.531Z,11.92
2022-11-19T10:09:48.350Z,11.96
2022-11-19T10:21:36.811Z,11.98
2022-11-19T10:24:28.406Z,12.02
2022-11-19T10:27:26.924Z,12.05
2022-11-19T10:41:24.200Z,12.17
2022-11-19T10:43:55.142Z,12.18
2022-11-19T10:57:16.233Z,12.29
2022-11-19T11:02:38.363Z,12.38
2022-11-19T11:10:42.942Z,12.42
2022-11-19T11:13:35.164Z,12.46
2022-11-19T11:16:06.128Z,12.54
2022-11-19T11:18:33.156Z,12.57
2022-11-19T11:21:00.582Z,12.60
2022-11-19T11:23:31.432Z,12.60
2022-11-19T11:26:06.513Z,12.62
2022-11-19T11:28:33.780Z,12.66
2022-11-19T11:31:10.069Z,12.70
2022-11-19T11:33:41.386Z,12.70
2022-11-19T11:36:23.140Z,12.72
2022-11-19T11:42:32.262Z,12.70
2022-11-19T11:45:00.859Z,12.71
2022-11-19T11:47:32.281Z,12.75
2022-11-19T11:50:02.183Z,12.75
2022-11-19T11:52:40.404Z,12.76
2022-11-19T11:55:14.800Z,12.75
2022-11-19T11:57:52.004Z,12.74
2022-11-19T12:00:36.809Z,12.76
2022-11-19T12:03:07.123Z,12.83
2022-11-19T12:09:07.168Z,12.86
2022-11-19T12:11:55.190Z,12.88
2022-11-19T12:14:34.951Z,12.91
2022-11-19T12:17:04.926Z,12.92
2022-11-19T12:19:37.144Z,12.89
2022-11-19T12:22:04.077Z,12.86
2022-11-19T12:24:30.900Z,12.86
2022-11-19T12:27:08.184Z,12.87
2022-11-19T12:29:55.316Z,12.83
2022-11-19T12:32:46.953Z,12.86
2022-11-19T12:35:19.996Z,12.83
2022-11-19T12:37:47.138Z,12.82
2022-11-19T12:40:26.328Z,12.79
2022-11-19T12:43:04.663Z,12.80
2022-11-19T12:45:37.945Z,12.82
2022-11-19T12:48:17.293Z,12.82
2022-11-19T12:50:53.748Z,12.83
2022-11-19T12:53:39.505Z,12.85
2022-11-19T12:56:31.000Z,12.86
2022-11-19T12:59:13.123Z,12.89
2022-11-19T13:01:42.893Z,12.92
2022-11-19T13:04:19.785Z,12.92
2022-11-19T13:07:10.375Z,12.92
2022-11-19T13:09:48.940Z,12.89
2022-11-19T13:12:30.848Z,12.90
2022-11-19T13:15:01.237Z,12.88
2022-11-19T13:17:28.141Z,12.86
2022-11-19T13:20:04.274Z,12.86
2022-11-19T13:23:21.523Z,12.92
2022-11-19T13:25:56.044Z,12.88
2022-11-19T13:28:37.828Z,12.87
2022-11-19T13:31:08.032Z,12.87
2022-11-19T13:33:47.863Z,12.85
2022-11-19T13:36:36.845Z,12.82
2022-11-19T13:39:18.202Z,12.78
2022-11-19T13:42:09.558Z,12.75
2022-11-19T13:44:42.012Z,12.74
2022-11-19T13:47:27.105Z,12.69
2022-11-19T13:50:00.383Z,12.72
2022-11-19T13:52:47.281Z,12.73
2022-11-19T13:55:31.491Z,12.67
2022-11-19T13:58:07.178Z,12.67
2022-11-19T14:00:34.148Z,12.69
2022-11-19T14:03:10.723Z,12.68
2022-11-19T14:06:03.948Z,12.70
2022-11-19T14:08:49.601Z,12.72
2022-11-19T14:11:16.398Z,12.75
2022-11-19T14:13:52.482Z,12.79
2022-11-19T14:16:53.123Z,12.77
2022-11-19T14:19:38.557Z,12.73
2022-11-19T14:22:42.898Z,12.73
2022-11-19T14:25:28.669Z,12.72
2022-11-19T14:27:55.418Z,12.73
2022-11-19T14:30:42.160Z,12.75
2022-11-19T14:33:27.719Z,12.79
2022-11-19T14:35:54.677Z,12.84
2022-11-19T14:38:36.781Z,12.89
2022-11-19T14:41:15.806Z,12.95
2022-11-19T14:44:08.583Z,13.00
2022-11-19T14:46:40.819Z,12.97
2022-11-19T14:49:24.049Z,12.96
2022-11-19T14:51:52.843Z,12.95
2022-11-19T15:05:41.994Z,12.86
2022-11-19T15:11:13.729Z,12.83
2022-11-19T15:25:40.192Z,12.74
2022-11-19T15:31:05.687Z,12.65
2022-11-19T15:33:45.742Z,12.63
2022-11-19T15:36:37.466Z,12.57
2022-11-19T15:39:10.506Z,12.55
2022-11-19T15:41:39.580Z,12.56
2022-11-19T15:44:10.369Z,12.54
2022-11-19T15:46:53.926Z,12.55
2022-11-19T15:49:25.563Z,12.55
2022-11-19T15:51:58.986Z,12.56
2022-11-19T15:54:30.375Z,12.57
2022-11-19T15:57:06.111Z,12.56
2022-11-19T15:59:35.113Z,12.56
2022-11-19T16:02:05.920Z,12.55
2022-11-19T16:04:37.933Z,12.56
2022-11-19T16:07:06.711Z,12.55
2022-11-19T16:09:37.136Z,12.57
2022-11-19T16:12:22.695Z,12.58
2022-11-19T16:15:12.770Z,12.59
2022-11-19T16:17:53.250Z,12.61
2022-11-19T16:20:22.404Z,12.60
2022-11-19T16:22:58.359Z,12.61
2022-11-19T16:25:30.042Z,12.61
2022-11-19T16:28:00.127Z,12.62
2022-11-19T16:30:28.342Z,12.60
2022-11-19T16:32:59.409Z,12.58
2022-11-19T16:35:28.289Z,12.61
2022-11-19T16:37:56.567Z,12.63
2022-11-19T16:40:24.187Z,12.64
2022-11-19T16:42:55.605Z,12.66
2022-11-19T16:45:24.631Z,12.69
2022-11-19T16:47:53.118Z,12.70
2022-11-19T16:50:28.066Z,12.70
2022-11-19T16:52:56.195Z,12.70
2022-11-19T16:55:23.206Z,12.70
2022-11-19T16:57:52.179Z,12.70
2022-11-19T17:00:32.191Z,12.68
2022-11-19T17:02:59.004Z,12.70
2022-11-19T17:05:28.996Z,12.67
2022-11-19T17:08:06.526Z,12.69
2022-11-19T17:11:20.439Z,12.71
2022-11-19T17:13:47.275Z,12.74
2022-11-19T17:16:18.696Z,12.73
2022-11-19T17:18:46.846Z,12.74
2022-11-19T17:21:46.241Z,12.74
2022-11-19T17:24:14.251Z,12.71
2022-11-19T17:26:46.577Z,12.72
2022-11-19T17:29:19.584Z,12.74
2022-11-19T17:31:48.163Z,12.75
2022-11-19T17:34:37.734Z,12.74
2022-11-19T17:37:08.329Z,12.75
2022-11-19T17:39:35.226Z,12.76
2022-11-19T17:42:23.358Z,12.77
2022-11-19T17:44:55.631Z,12.70
2022-11-19T17:47:24.387Z,12.71
2022-11-19T17:49:51.718Z,12.74
2022-11-19T17:52:29.239Z,12.74
2022-11-19T17:55:02.848Z,12.74
2022-11-19T17:57:29.824Z,12.72
2022-11-19T17:59:56.863Z,12.74
2022-11-19T18:02:35.613Z,12.73
2022-11-19T18:05:09.247Z,12.73
2022-11-19T18:07:36.182Z,12.71
2022-11-19T18:10:04.442Z,12.69
2022-11-19T18:12:35.428Z,12.67
2022-11-19T18:15:05.041Z,12.66
2022-11-19T18:17:31.848Z,12.66
2022-11-19T18:19:58.772Z,12.67
2022-11-19T18:22:28.765Z,12.68
2022-11-19T18:24:57.268Z,12.69
2022-11-19T18:27:24.095Z,12.66
2022-11-19T18:29:53.570Z,12.64
2022-11-19T18:32:20.676Z,12.66
2022-11-19T18:34:47.684Z,12.66
2022-11-19T18:37:14.654Z,12.57
2022-11-19T18:39:44.453Z,12.49
2022-11-19T18:42:12.338Z,12.46
2022-11-19T18:44:39.232Z,12.48
2022-11-19T18:47:10.521Z,12.49
2022-11-19T18:49:37.975Z,12.52
2022-11-19T18:52:05.825Z,12.52
2022-11-19T18:54:33.047Z,12.53
2022-11-19T18:56:59.843Z,12.51
2022-11-19T18:59:26.661Z,12.51
2022-11-19T19:01:56.111Z,12.53
2022-11-19T19:04:26.895Z,12.54
2022-11-19T19:06:54.065Z,12.52
2022-11-19T19:09:21.818Z,12.43
2022-11-19T19:12:12.655Z,12.34
2022-11-19T19:14:40.274Z,12.31
2022-11-19T19:17:07.247Z,12.32
2022-11-19T19:19:34.188Z,12.34
2022-11-19T19:22:01.298Z,12.34
2022-11-19T19:24:29.670Z,12.29
2022-11-19T19:26:58.430Z,12.26
2022-11-19T19:29:25.602Z,12.19
2022-11-19T19:31:53.126Z,12.18
2022-11-19T19:34:20.274Z,12.17
2022-11-19T19:36:52.751Z,12.20
2022-11-19T19:39:20.459Z,12.18
2022-11-19T19:41:47.579Z,12.15
2022-11-19T19:44:14.413Z,12.10
2022-11-19T19:46:41.264Z,12.04
2022-11-19T19:52:33.553Z,11.96
2022-11-19T19:55:00.423Z,11.93
2022-11-19T19:57:30.779Z,11.93
2022-11-19T20:00:00.097Z,11.93
2022-11-19T20:02:40.980Z,11.92
2022-11-19T20:05:08.311Z,11.91
2022-11-19T20:07:35.245Z,11.86
2022-11-19T20:10:02.096Z,11.85
2022-11-19T20:12:54.025Z,11.84
2022-11-19T20:15:20.830Z,11.82
2022-11-19T20:17:53.065Z,11.80
2022-11-19T20:20:20.070Z,11.80
2022-11-19T20:22:46.915Z,11.75
2022-11-19T20:25:13.655Z,11.75
2022-11-19T20:27:40.586Z,11.75
2022-11-19T20:30:10.869Z,11.73
2022-11-19T20:32:37.959Z,11.71
2022-11-19T20:38:25.504Z,11.66
2022-11-19T20:40:55.722Z,11.65
2022-11-19T20:43:45.857Z,11.64
2022-11-19T20:46:15.430Z,11.62
2022-11-19T20:48:42.236Z,11.59
2022-11-19T20:54:27.891Z,11.51
2022-11-19T20:56:55.401Z,11.47
2022-11-19T20:59:32.741Z,11.40
2022-11-19T21:01:59.794Z,11.38
2022-11-19T21:07:44.842Z,11.26
2022-11-19T21:10:11.995Z,11.23
2022-11-19T21:12:58.713Z,11.25
2022-11-19T21:15:25.556Z,11.23
2022-11-19T21:17:52.388Z,11.23
2022-11-19T21:20:19.154Z,11.25
2022-11-19T21:22:49.785Z,11.22
2022-11-19T21:25:17.814Z,11.22
2022-11-19T21:27:44.750Z,11.14
2022-11-19T21:30:12.921Z,11.15
2022-11-19T21:32:56.665Z,11.11
2022-11-19T21:35:23.579Z,11.05
2022-11-19T21:37:50.339Z,11.01
2022-11-19T21:43:39.366Z,10.91
2022-11-19T21:46:09.170Z,10.91
2022-11-19T21:48:37.772Z,10.89
2022-11-19T21:51:12.165Z,10.89
2022-11-19T21:53:39.372Z,10.89
2022-11-19T21:56:06.676Z,10.88
2022-11-19T21:58:35.927Z,10.86
2022-11-19T22:01:04.467Z,10.85
2022-11-19T22:03:35.490Z,10.85
2022-11-19T22:06:04.223Z,10.84
2022-11-19T22:08:31.636Z,10.84
2022-11-19T22:10:58.864Z,10.80
2022-11-19T22:13:27.988Z,10.78
2022-11-19T22:16:01.631Z,10.73
2022-11-19T22:18:28.605Z,10.63
2022-11-19T22:21:02.128Z,10.61
2022-11-19T22:23:36.518Z,10.62
2022-11-19T22:26:09.999Z,10.61
2022-11-19T22:28:37.049Z,10.64
2022-11-19T22:34:22.180Z,10.56
2022-11-19T22:36:49.015Z,10.56
2022-11-19T22:39:15.960Z,10.54
2022-11-19T22:41:42.738Z,10.56
2022-11-19T22:44:09.770Z,10.58
2022-11-19T22:46:36.710Z,10.58
2022-11-19T22:49:03.595Z,10.56
2022-11-19T22:51:30.403Z,10.55
2022-11-19T22:53:57.253Z,10.53
2022-11-19T22:56:25.206Z,10.50
2022-11-19T23:05:36.889Z,10.40
2022-11-19T23:08:08.504Z,10.41
2022-11-19T23:10:35.597Z,10.38
2022-11-19T23:13:21.740Z,10.40
2022-11-19T23:16:05.594Z,10.45
2022-11-19T23:18:33.836Z,10.46
2022-11-19T23:21:02.597Z,10.48
2022-11-19T23:23:29.908Z,10.49
2022-11-19T23:26:00.948Z,10.49
2022-11-19T23:28:32.341Z,10.51
2022-11-19T23:31:10.402Z,10.53
2022-11-19T23:33:39.777Z,10.51
2022-11-19T23:36:08.729Z,10.50
2022-11-19T23:38:37.042Z,10.46
2022-11-19T23:41:06.901Z,10.40
2022-11-19T23:43:37.733Z,10.41
2022-11-19T23:46:12.723Z,10.39
2022-11-19T23:48:41.096Z,10.39
2022-11-19T23:54:26.985Z,10.38
2022-11-19T23:56:54.355Z,10.36
2022-11-19T23:59:25.433Z,10.34
